createdAt,value
2018-06-28T00:01:52.484Z,98870.78
2018-06-28T00:04:21.684Z,98871.84
2018-06-28T00:06:51.405Z,98868.59
2018-06-28T00:09:20.582Z,98870.75
2018-06-28T00:11:49.840Z,98864.52
2018-06-28T00:14:18.992Z,98867.74
2018-06-28T00:16:48.204Z,98862.61
2018-06-28T00:19:17.378Z,98861.76
2018-06-28T00:21:46.594Z,98857.14
2018-06-28T00:24:15.809Z,98846.27
2018-06-28T00:26:44.919Z,98843.55
2018-06-28T00:29:14.166Z,98841.89
2018-06-28T00:31:43.446Z,98838.58
2018-06-28T00:34:12.277Z,98835.61
2018-06-28T00:36:41.024Z,98835.91
2018-06-28T00:39:10.966Z,98832.95
2018-06-28T00:41:40.266Z,98831.70
2018-06-28T00:44:09.540Z,98825.74
2018-06-28T00:46:38.249Z,98824.69
2018-06-28T00:49:07.447Z,98820.82
2018-06-28T00:51:36.171Z,98816.21
2018-06-28T00:54:04.945Z,98815.87
2018-06-28T00:56:33.663Z,98811.52
2018-06-28T00:59:02.391Z,98810.44
2018-06-28T01:01:31.513Z,98810.17
2018-06-28T01:04:00.702Z,98811.80
2018-06-28T01:06:29.993Z,98811.05
2018-06-28T01:08:59.188Z,98809.70
2018-06-28T01:11:28.398Z,98811.03
2018-06-28T01:13:57.609Z,98814.80
2018-06-28T01:16:26.582Z,98815.30
2018-06-28T01:18:55.629Z,98812.88
2018-06-28T01:21:24.325Z,98814.19
2018-06-28T01:23:53.029Z,98805.55
2018-06-28T01:26:21.765Z,98796.61
2018-06-28T01:28:50.589Z,98805.01
2018-06-28T01:31:19.715Z,98810.22
2018-06-28T01:33:49.026Z,98814.28
2018-06-28T01:36:18.226Z,98814.26
2018-06-28T01:38:47.446Z,98814.75
2018-06-28T01:41:16.532Z,98816.10
2018-06-28T01:43:46.466Z,98814.19
2018-06-28T01:46:16.207Z,98812.33
2018-06-28T01:48:45.683Z,98810.23
2018-06-28T01:51:14.942Z,98806.14
2018-06-28T01:53:44.159Z,98798.85
2018-06-28T01:56:13.345Z,98802.38
2018-06-28T01:58:42.546Z,98805.39
2018-06-28T02:01:11.739Z,98802.64
2018-06-28T02:03:41.223Z,98800.67
2018-06-28T02:06:10.241Z,98793.53
2018-06-28T02:08:39.229Z,98787.05
2018-06-28T02:11:08.429Z,98777.84
2018-06-28T02:13:37.642Z,98775.38
2018-06-28T02:16:06.871Z,98768.59
2018-06-28T02:18:36.047Z,98768.05
2018-06-28T02:21:05.347Z,98772.67
2018-06-28T02:23:34.572Z,98779.02
2018-06-28T02:26:03.746Z,98781.26
2018-06-28T02:28:32.861Z,98777.70
2018-06-28T02:31:02.117Z,98777.39
2018-06-28T02:33:31.030Z,98779.55
2018-06-28T02:35:59.742Z,98780.92
2018-06-28T02:38:28.897Z,98779.00
2018-06-28T02:40:58.102Z,98775.28
2018-06-28T02:43:27.398Z,98769.42
2018-06-28T02:45:56.695Z,98762.69
2018-06-28T02:48:25.611Z,98766.14
2018-06-28T02:50:54.622Z,98765.80
2018-06-28T02:53:23.687Z,98764.17
2018-06-28T02:55:52.687Z,98767.14
2018-06-28T02:58:21.909Z,98767.14
2018-06-28T03:00:50.875Z,98768.75
2018-06-28T03:03:20.177Z,98769.50
2018-06-28T03:05:49.081Z,98767.05
2018-06-28T03:08:18.271Z,98756.94
2018-06-28T03:10:47.261Z,98754.97
2018-06-28T03:13:16.570Z,98752.51
2018-06-28T03:15:45.738Z,98754.66
2018-06-28T03:18:14.933Z,98751.70
2018-06-28T03:20:44.177Z,98747.98
2018-06-28T03:23:13.232Z,98750.70
2018-06-28T03:25:42.462Z,98753.98
2018-06-28T03:28:11.621Z,98759.41
2018-06-28T03:30:40.851Z,98764.78
2018-06-28T03:33:10.031Z,98760.89
2018-06-28T03:35:39.221Z,98761.09
2018-06-28T03:38:08.562Z,98751.52
2018-06-28T03:40:37.829Z,98746.02
2018-06-28T03:43:07.046Z,98748.12
2018-06-28T03:45:36.238Z,98751.30
2018-06-28T03:48:05.430Z,98748.52
2018-06-28T03:50:34.452Z,98742.77
2018-06-28T03:53:03.614Z,98744.88
2018-06-28T03:55:32.815Z,98743.77
2018-06-28T03:58:02.384Z,98749.20
2018-06-28T04:00:31.540Z,98749.17
2018-06-28T04:03:00.750Z,98750.78
2018-06-28T04:05:29.450Z,98750.53
2018-06-28T04:07:58.493Z,98752.64
2018-06-28T04:10:27.554Z,98761.09
2018-06-28T04:12:56.691Z,98764.14
2018-06-28T04:15:25.726Z,98764.21
2018-06-28T04:17:54.929Z,98761.25
2018-06-28T04:20:24.106Z,98760.11
2018-06-28T04:22:53.283Z,98755.19
2018-06-28T04:25:22.492Z,98756.41
2018-06-28T04:27:51.689Z,98753.31
2018-06-28T04:30:20.919Z,98756.42
2018-06-28T04:32:50.098Z,98755.80
2018-06-28T04:35:19.561Z,98755.72
2018-06-28T04:37:48.778Z,98757.27
2018-06-28T04:40:17.974Z,98754.16
2018-06-28T04:42:47.274Z,98752.02
2018-06-28T04:45:16.578Z,98742.28
2018-06-28T04:47:45.306Z,98742.19
2018-06-28T04:50:14.022Z,98750.84
2018-06-28T04:52:42.763Z,98755.60
2018-06-28T04:55:11.462Z,98752.20
2018-06-28T04:57:40.558Z,98759.15
2018-06-28T05:00:09.717Z,98762.58
2018-06-28T05:02:38.910Z,98770.48
2018-06-28T05:05:08.105Z,98771.77
2018-06-28T05:07:37.217Z,98773.10
2018-06-28T05:10:06.554Z,98775.66
2018-06-28T05:12:35.813Z,98779.39
2018-06-28T05:15:05.013Z,98786.59
2018-06-28T05:17:34.218Z,98782.77
2018-06-28T05:20:03.401Z,98779.61
2018-06-28T05:22:32.639Z,98786.88
2018-06-28T05:25:01.808Z,98782.23
2018-06-28T05:27:31.007Z,98770.27
2018-06-28T05:30:00.415Z,98772.92
2018-06-28T05:32:29.369Z,98773.07
2018-06-28T05:34:58.642Z,98772.69
2018-06-28T05:37:28.005Z,98775.41
2018-06-28T05:39:57.310Z,98769.06
2018-06-28T05:42:26.422Z,98763.33
2018-06-28T05:44:55.593Z,98764.19
2018-06-28T05:47:24.827Z,98759.86
2018-06-28T05:49:54.087Z,98759.85
2018-06-28T05:52:23.328Z,98760.23
2018-06-28T05:54:52.504Z,98759.09
2018-06-28T05:57:21.685Z,98755.04
2018-06-28T05:59:50.920Z,98743.56
2018-06-28T06:02:20.077Z,98737.05
2018-06-28T06:04:49.277Z,98736.33
2018-06-28T06:07:18.478Z,98727.67
2018-06-28T06:09:47.735Z,98733.96
2018-06-28T06:12:16.930Z,98731.91
2018-06-28T06:14:46.204Z,98720.48
2018-06-28T06:17:15.382Z,98716.83
2018-06-28T06:19:44.578Z,98708.00
2018-06-28T06:22:13.775Z,98708.83
2018-06-28T06:24:42.965Z,98710.92
2018-06-28T06:27:12.178Z,98703.61
2018-06-28T06:29:41.437Z,98707.00
2018-06-28T06:32:10.627Z,98706.89
2018-06-28T06:34:39.853Z,98703.73
2018-06-28T06:37:09.092Z,98699.34
2018-06-28T06:39:38.053Z,98701.31
2018-06-28T06:42:07.256Z,98696.50
2018-06-28T06:44:36.284Z,98698.59
2018-06-28T06:47:05.333Z,98696.02
2018-06-28T06:49:34.640Z,98691.38
2018-06-28T06:52:03.899Z,98696.45
2018-06-28T06:54:33.094Z,98697.22
2018-06-28T06:57:02.261Z,98708.33
2018-06-28T06:59:31.523Z,98706.05
2018-06-28T07:02:00.657Z,98705.63
2018-06-28T07:04:29.864Z,98707.47
2018-06-28T07:06:59.045Z,98709.89
2018-06-28T07:09:28.293Z,98708.73
2018-06-28T07:11:57.315Z,98711.44
2018-06-28T07:14:26.525Z,98704.35
2018-06-28T07:16:55.727Z,98706.08
2018-06-28T07:19:24.936Z,98701.38
2018-06-28T07:21:54.008Z,98700.15
2018-06-28T07:24:23.119Z,98705.63
2018-06-28T07:26:52.427Z,98710.56
2018-06-28T07:29:21.722Z,98707.09
2018-06-28T07:31:51.050Z,98708.65
2018-06-28T07:34:20.166Z,98714.00
2018-06-28T07:36:49.447Z,98705.91
2018-06-28T07:39:18.646Z,98702.52
2018-06-28T07:41:47.822Z,98701.12
2018-06-28T07:44:17.001Z,98707.12
2018-06-28T07:46:46.237Z,98712.29
2018-06-28T07:49:19.554Z,98710.23
2018-06-28T07:51:49.034Z,98713.91
2018-06-28T07:54:18.535Z,98713.09
2018-06-28T07:56:47.536Z,98713.70
2018-06-28T07:59:16.243Z,98713.11
2018-06-28T08:01:44.950Z,98720.84
2018-06-28T08:04:14.221Z,98717.73
2018-06-28T08:06:42.918Z,98691.55
2018-06-28T08:09:11.612Z,98708.05
2018-06-28T08:11:40.752Z,98705.22
2018-06-28T08:14:09.787Z,98704.95
2018-06-28T08:16:39.039Z,98708.23
2018-06-28T08:19:08.098Z,98712.86
2018-06-28T08:21:37.217Z,98713.00
2018-06-28T08:24:06.353Z,98715.06
2018-06-28T08:26:35.562Z,98717.67
2018-06-28T08:29:04.713Z,98716.90
2018-06-28T08:31:33.957Z,98719.05
2018-06-28T08:34:03.227Z,98711.72
2018-06-28T08:36:32.681Z,98712.80
2018-06-28T08:39:01.826Z,98704.05
2018-06-28T08:41:31.086Z,98705.44
2018-06-28T08:44:00.209Z,98703.67
2018-06-28T08:46:29.530Z,98702.58
2018-06-28T08:48:58.984Z,98700.92
2018-06-28T08:51:28.121Z,98702.25
2018-06-28T08:53:57.353Z,98700.14
2018-06-28T08:56:26.424Z,98707.89
2018-06-28T08:58:55.626Z,98707.08
2018-06-28T09:01:24.967Z,98707.08
2018-06-28T09:03:54.142Z,98707.65
2018-06-28T09:06:23.222Z,98706.81
2018-06-28T09:08:52.408Z,98696.72
2018-06-28T09:11:21.613Z,98688.02
2018-06-28T09:13:50.845Z,98686.11
2018-06-28T09:16:20.014Z,98686.77
2018-06-28T09:18:49.240Z,98681.45
2018-06-28T09:21:18.573Z,98674.54
2018-06-28T09:23:47.701Z,98668.80
2018-06-28T09:26:16.847Z,98669.63
2018-06-28T09:28:46.909Z,98674.73
2018-06-28T09:31:16.229Z,98670.41
2018-06-28T09:33:45.563Z,98677.45
2018-06-28T09:36:14.571Z,98671.44
2018-06-28T09:38:43.494Z,98667.59
2018-06-28T09:41:12.810Z,98669.45
2018-06-28T09:43:42.112Z,98670.61
2018-06-28T09:46:11.551Z,98669.56
2018-06-28T09:48:40.664Z,98670.11
2018-06-28T09:51:09.872Z,98663.04
2018-06-28T09:53:38.912Z,98660.18
2018-06-28T09:56:08.341Z,98665.38
2018-06-28T09:58:37.501Z,98660.67
2018-06-28T10:01:06.807Z,98655.47
2018-06-28T10:03:36.047Z,98661.02
2018-06-28T10:06:05.186Z,98660.30
2018-06-28T10:08:34.293Z,98649.80
2018-06-28T10:11:03.503Z,98640.55
2018-06-28T10:13:32.699Z,98636.59
2018-06-28T10:16:01.933Z,98632.36
2018-06-28T10:18:30.981Z,98636.23
2018-06-28T10:21:00.042Z,98636.34
2018-06-28T10:23:29.466Z,98634.17
2018-06-28T10:25:58.499Z,98627.14
2018-06-28T10:28:27.533Z,98618.98
2018-06-28T10:30:56.519Z,98619.86
2018-06-28T10:33:25.677Z,98625.71
2018-06-28T10:35:54.875Z,98624.29
2018-06-28T10:38:24.055Z,98634.78
2018-06-28T10:40:53.345Z,98619.66
2018-06-28T10:43:22.471Z,98633.99
2018-06-28T10:45:51.643Z,98625.97
2018-06-28T10:48:20.906Z,98623.65
2018-06-28T10:50:50.058Z,98612.91
2018-06-28T10:53:19.136Z,98617.12
2018-06-28T10:55:48.283Z,98619.30
2018-06-28T10:58:17.444Z,98625.48
2018-06-28T11:00:46.675Z,98631.73
2018-06-28T11:03:15.846Z,98641.77
2018-06-28T11:05:45.059Z,98647.57
2018-06-28T11:08:14.253Z,98653.84
2018-06-28T11:10:43.453Z,98653.90
2018-06-28T11:13:12.653Z,98656.80
2018-06-28T11:15:41.958Z,98657.81
2018-06-28T11:18:11.154Z,98661.11
2018-06-28T11:20:40.326Z,98667.75
2018-06-28T11:23:09.527Z,98676.66
2018-06-28T11:25:38.666Z,98675.46
2018-06-28T11:28:07.818Z,98682.32
2018-06-28T11:30:37.126Z,98686.75
2018-06-28T11:33:06.432Z,98685.59
2018-06-28T11:35:35.722Z,98689.36
2018-06-28T11:38:05.036Z,98702.88
2018-06-28T11:40:34.230Z,98708.91
2018-06-28T11:43:03.763Z,98718.23
2018-06-28T11:45:32.939Z,98726.05
2018-06-28T11:48:02.778Z,98747.30
2018-06-28T11:50:32.165Z,98757.95
2018-06-28T11:53:01.233Z,98753.39
2018-06-28T11:55:30.325Z,98742.61
2018-06-28T11:57:59.620Z,98740.02
2018-06-28T12:00:29.065Z,98740.87
2018-06-28T12:02:58.335Z,98734.09
2018-06-28T12:05:27.400Z,98728.65
2018-06-28T12:07:56.685Z,98718.77
2018-06-28T12:10:25.985Z,98697.39
2018-06-28T12:12:54.979Z,98680.80
2018-06-28T12:15:24.125Z,98677.65
2018-06-28T12:17:53.169Z,98678.45
2018-06-28T12:20:21.985Z,98679.36
2018-06-28T12:22:50.832Z,98688.30
2018-06-28T12:25:19.678Z,98691.47
2018-06-28T12:27:48.441Z,98691.32
2018-06-28T12:30:17.241Z,98692.92
2018-06-28T12:32:46.018Z,98705.49
2018-06-28T12:35:14.907Z,98721.94
2018-06-28T12:37:44.097Z,98747.07
2018-06-28T12:40:12.859Z,98743.97
2018-06-28T12:42:41.753Z,98720.34
2018-06-28T12:45:10.490Z,98715.03
2018-06-28T12:47:51.637Z,98706.02
2018-06-28T12:50:20.501Z,98693.14
2018-06-28T12:52:57.334Z,98689.66
2018-06-28T12:55:26.768Z,98690.34
2018-06-28T12:57:57.783Z,98712.13
2018-06-28T13:00:26.520Z,98726.75
2018-06-28T13:02:55.295Z,98732.25
2018-06-28T13:05:24.069Z,98732.58
2018-06-28T13:07:52.850Z,98728.91
2018-06-28T13:10:21.619Z,98720.28
2018-06-28T13:12:50.398Z,98723.75
2018-06-28T13:15:19.153Z,98724.98
2018-06-28T13:17:47.893Z,98721.12
2018-06-28T13:20:19.983Z,98721.53
2018-06-28T13:22:48.821Z,98715.34
2018-06-28T13:25:17.590Z,98712.92
2018-06-28T13:27:46.377Z,98716.62
2018-06-28T13:30:15.839Z,98710.52
2018-06-28T13:32:44.663Z,98704.91
2018-06-28T13:35:13.584Z,98703.84
2018-06-28T13:37:45.148Z,98703.38
2018-06-28T13:40:19.142Z,98702.34
2018-06-28T13:42:51.389Z,98695.19
2018-06-28T13:45:23.703Z,98690.69
2018-06-28T13:47:52.594Z,98689.66
2018-06-28T13:50:21.385Z,98682.23
2018-06-28T13:52:50.103Z,98677.11
2018-06-28T13:55:18.903Z,98665.15
2018-06-28T13:57:47.935Z,98644.50
2018-06-28T14:00:16.974Z,98627.17
2018-06-28T14:02:46.197Z,98607.48
2018-06-28T14:05:15.419Z,98594.80
2018-06-28T14:07:44.646Z,98590.23
2018-06-28T14:10:14.209Z,98591.98
2018-06-28T14:12:43.279Z,98597.84
2018-06-28T14:15:12.475Z,98598.73
2018-06-28T14:17:41.674Z,98601.39
2018-06-28T14:20:11.102Z,98599.93
2018-06-28T14:22:40.405Z,98594.22
2018-06-28T14:25:09.851Z,98587.20
2018-06-28T14:27:39.043Z,98578.34
2018-06-28T14:30:09.763Z,98579.78
2018-06-28T14:32:38.810Z,98573.92
2018-06-28T14:35:08.211Z,98578.66
2018-06-28T14:37:37.465Z,98581.89
2018-06-28T14:40:06.882Z,98587.53
2018-06-28T14:42:36.267Z,98593.86
2018-06-28T14:45:05.477Z,98592.67
2018-06-28T14:47:34.854Z,98597.52
2018-06-28T14:50:04.079Z,98589.86
2018-06-28T14:52:33.209Z,98591.50
2018-06-28T14:55:02.672Z,98607.08
2018-06-28T14:57:31.709Z,98615.04
2018-06-28T15:00:00.727Z,98616.92
2018-06-28T15:02:29.780Z,98621.14
2018-06-28T15:04:59.095Z,98626.23
2018-06-28T15:07:28.357Z,98627.19
2018-06-28T15:09:57.465Z,98625.91
2018-06-28T15:12:26.691Z,98637.95
2018-06-28T15:14:55.906Z,98634.20
2018-06-28T15:17:25.073Z,98637.45
2018-06-28T15:19:54.231Z,98634.94
2018-06-28T15:22:23.398Z,98625.95
2018-06-28T15:24:52.634Z,98628.23
2018-06-28T15:27:21.781Z,98624.28
2018-06-28T15:29:51.085Z,98628.53
2018-06-28T15:32:20.240Z,98629.98
2018-06-28T15:34:49.373Z,98636.19
2018-06-28T15:37:18.562Z,98638.85
2018-06-28T15:39:47.921Z,98639.38
2018-06-28T15:42:17.285Z,98631.89
2018-06-28T15:44:46.421Z,98627.02
2018-06-28T15:47:15.568Z,98622.84
2018-06-28T15:49:44.913Z,98624.78
2018-06-28T15:52:14.069Z,98628.66
2018-06-28T15:54:43.261Z,98620.95
2018-06-28T15:57:12.574Z,98629.45
2018-06-28T15:59:41.776Z,98626.91
2018-06-28T16:02:10.494Z,98624.22
2018-06-28T16:04:39.216Z,98616.98
2018-06-28T16:07:08.094Z,98617.05
2018-06-28T16:09:36.861Z,98613.17
2018-06-28T16:12:05.890Z,98615.67
2018-06-28T16:14:34.643Z,98619.76
2018-06-28T16:17:03.485Z,98629.17
2018-06-28T16:19:32.222Z,98627.02
2018-06-28T16:22:00.912Z,98620.16
2018-06-28T16:24:29.602Z,98607.23
2018-06-28T16:26:58.298Z,98607.59
2018-06-28T16:29:27.164Z,98610.49
2018-06-28T16:31:56.035Z,98617.91
2018-06-28T16:34:24.733Z,98625.54
2018-06-28T16:36:53.719Z,98638.64
2018-06-28T16:39:22.450Z,98651.26
2018-06-28T16:41:51.181Z,98662.89
2018-06-28T16:44:19.890Z,98667.23
2018-06-28T16:46:48.625Z,98669.72
2018-06-28T16:49:17.362Z,98670.61
2018-06-28T16:51:46.088Z,98665.30
2018-06-28T16:54:14.809Z,98664.91
2018-06-28T16:56:43.700Z,98659.53
2018-06-28T16:59:12.438Z,98664.25
2018-06-28T17:01:41.349Z,98676.30
2018-06-28T17:04:10.075Z,98677.16
2018-06-28T17:06:39.034Z,98674.22
2018-06-28T17:09:09.075Z,98675.80
2018-06-28T17:11:37.933Z,98674.98
2018-06-28T17:14:07.370Z,98682.00
2018-06-28T17:16:36.232Z,98676.53
2018-06-28T17:19:05.530Z,98673.83
2018-06-28T17:21:34.252Z,98673.24
2018-06-28T17:24:02.977Z,98669.02
2018-06-28T17:26:31.746Z,98657.80
2018-06-28T17:29:00.488Z,98657.73
2018-06-28T17:31:29.369Z,98655.17
2018-06-28T17:33:58.117Z,98645.03
2018-06-28T17:36:26.865Z,98638.38
2018-06-28T17:38:55.643Z,98635.72
2018-06-28T17:41:24.478Z,98627.61
2018-06-28T17:43:53.355Z,98629.81
2018-06-28T17:46:22.133Z,98626.41
2018-06-28T17:48:50.887Z,98618.14
2018-06-28T17:51:19.642Z,98615.14
2018-06-28T17:53:48.790Z,98604.42
2018-06-28T17:56:17.598Z,98601.07
2018-06-28T17:58:46.323Z,98606.33
2018-06-28T18:01:15.098Z,98602.35
2018-06-28T18:03:43.845Z,98595.96
2018-06-28T18:06:12.600Z,98588.84
2018-06-28T18:08:41.378Z,98588.50
2018-06-28T18:11:10.140Z,98585.50
2018-06-28T18:13:38.900Z,98588.52
2018-06-28T18:16:07.683Z,98593.28
2018-06-28T18:18:36.436Z,98589.55
2018-06-28T18:21:05.237Z,98591.52
2018-06-28T18:23:34.042Z,98603.02
2018-06-28T18:26:02.773Z,98613.06
2018-06-28T18:28:31.522Z,98619.93
2018-06-28T18:31:00.233Z,98626.47
2018-06-28T18:33:28.982Z,98647.32
2018-06-28T18:35:57.778Z,98653.00
2018-06-28T18:38:26.623Z,98463.73
2018-06-28T18:40:55.451Z,98677.43
2018-06-28T18:43:24.222Z,98682.36
2018-06-28T18:45:53.184Z,98682.66
2018-06-28T18:48:22.132Z,98691.09
2018-06-28T18:50:51.003Z,98694.62
2018-06-28T18:53:19.714Z,98692.72
2018-06-28T18:55:48.794Z,98696.43
2018-06-28T18:58:17.527Z,98703.20
2018-06-28T19:00:46.319Z,98700.13
2018-06-28T19:03:15.050Z,98710.41
2018-06-28T19:05:43.815Z,98714.48
2018-06-28T19:08:12.548Z,98721.27
2018-06-28T19:10:46.394Z,98718.86
2018-06-28T19:13:15.173Z,98722.58
2018-06-28T19:15:48.933Z,98731.20
2018-06-28T19:18:17.798Z,98737.13
2018-06-28T19:20:50.607Z,98739.09
2018-06-28T19:23:51.188Z,98735.59
2018-06-28T19:26:20.282Z,98740.66
2018-06-28T19:28:49.637Z,98738.25
2018-06-28T19:31:23.604Z,98736.34
2018-06-28T19:33:52.385Z,98727.08
2018-06-28T19:36:21.260Z,98722.70
2018-06-28T19:38:55.053Z,98720.15
2018-06-28T19:41:29.056Z,98722.53
2018-06-28T19:43:57.743Z,98726.36
2018-06-28T19:46:26.504Z,98732.07
2018-06-28T19:48:55.249Z,98727.99
2018-06-28T19:51:30.877Z,98731.55
2018-06-28T19:54:02.559Z,98739.64
2018-06-28T19:56:31.544Z,98734.95
2018-06-28T19:59:00.296Z,98739.39
2018-06-28T20:01:34.493Z,98737.78
2018-06-28T20:04:08.366Z,98738.86
2018-06-28T20:06:37.095Z,98734.90
2018-06-28T20:09:08.451Z,98732.27
2018-06-28T20:11:37.282Z,98731.23
2018-06-28T20:14:11.229Z,98737.77
2018-06-28T20:16:45.218Z,98737.75
2018-06-28T20:19:19.070Z,98733.06
2018-06-28T20:21:47.912Z,98733.06
2018-06-28T20:24:16.681Z,98724.44
2018-06-28T20:26:50.597Z,98732.42
2018-06-28T20:29:24.529Z,98736.30
2018-06-28T20:31:58.392Z,98729.84
2018-06-28T20:34:27.186Z,98738.66
2018-06-28T20:36:55.960Z,98743.12
2018-06-28T20:39:24.779Z,98742.44
2018-06-28T20:41:53.789Z,98750.91
2018-06-28T20:44:22.733Z,98752.56
2018-06-28T20:46:51.556Z,98751.25
2018-06-28T20:49:20.444Z,98739.31
2018-06-28T20:51:49.199Z,98747.20
2018-06-28T20:54:18.400Z,98744.23
2018-06-28T20:56:47.229Z,98745.91
2018-06-28T20:59:16.047Z,98743.77
2018-06-28T21:01:44.848Z,98745.39
2018-06-28T21:04:13.630Z,98746.98
2018-06-28T21:06:42.344Z,98749.98
2018-06-28T21:09:11.081Z,98746.53
2018-06-28T21:11:39.824Z,98752.88
2018-06-28T21:14:08.579Z,98748.06
2018-06-28T21:16:37.322Z,98755.72
2018-06-28T21:19:06.124Z,98747.52
2018-06-28T21:21:34.896Z,98750.73
2018-06-28T21:24:03.631Z,98748.31
2018-06-28T21:26:32.367Z,98741.67
2018-06-28T21:29:01.090Z,98740.87
2018-06-28T21:31:29.793Z,98737.97
2018-06-28T21:33:58.531Z,98743.44
2018-06-28T21:36:27.294Z,98744.81
2018-06-28T21:38:56.011Z,98749.67
2018-06-28T21:41:24.821Z,98746.17
2018-06-28T21:43:53.853Z,98739.14
2018-06-28T21:46:22.748Z,98740.80
2018-06-28T21:48:51.541Z,98741.09
2018-06-28T21:51:20.246Z,98740.35
2018-06-28T21:53:48.997Z,98741.75
2018-06-28T21:56:17.684Z,98734.78
2018-06-28T21:58:46.402Z,98730.73
2018-06-28T22:01:15.125Z,98728.91
2018-06-28T22:03:43.834Z,98716.81
2018-06-28T22:06:12.560Z,98719.43
2018-06-28T22:08:41.278Z,98724.03
2018-06-28T22:11:10.017Z,98721.72
2018-06-28T22:13:38.697Z,98719.45
2018-06-28T22:16:07.431Z,98717.43
2018-06-28T22:18:36.149Z,98720.88
2018-06-28T22:21:04.861Z,98716.95
2018-06-28T22:23:33.611Z,98710.47
2018-06-28T22:26:02.325Z,98712.37
2018-06-28T22:28:31.075Z,98708.05
2018-06-28T22:30:59.800Z,98704.66
2018-06-28T22:33:28.501Z,98709.02
2018-06-28T22:35:57.239Z,98702.56
2018-06-28T22:38:25.959Z,98711.75
2018-06-28T22:40:54.698Z,98710.90
2018-06-28T22:43:23.447Z,98713.41
2018-06-28T22:45:52.173Z,98708.34
2018-06-28T22:48:20.908Z,98711.48
2018-06-28T22:50:49.606Z,98707.72
2018-06-28T22:53:18.301Z,98706.36
2018-06-28T22:55:47.078Z,98709.83
2018-06-28T22:58:15.776Z,98712.29
2018-06-28T23:00:44.487Z,98708.76
2018-06-28T23:03:13.234Z,98708.97
2018-06-28T23:05:41.979Z,98703.22
2018-06-28T23:08:10.916Z,98703.17
2018-06-28T23:10:39.625Z,98697.18
2018-06-28T23:13:08.337Z,98702.92
2018-06-28T23:15:37.029Z,98698.63
2018-06-28T23:18:05.839Z,98692.73
2018-06-28T23:20:34.548Z,98694.11
2018-06-28T23:23:03.254Z,98689.03
2018-06-28T23:25:32.082Z,98691.31
2018-06-28T23:28:00.833Z,98685.94
2018-06-28T23:30:29.530Z,98686.78
2018-06-28T23:32:58.288Z,98695.47
2018-06-28T23:35:27.456Z,98686.78
2018-06-28T23:37:56.201Z,98684.63
2018-06-28T23:40:24.917Z,98690.81
2018-06-28T23:42:53.629Z,98686.78
2018-06-28T23:45:22.336Z,98677.06
2018-06-28T23:47:51.079Z,98686.14
2018-06-28T23:50:19.849Z,98685.02
2018-06-28T23:52:48.547Z,98680.91
2018-06-28T23:55:17.259Z,98677.38
2018-06-28T23:57:45.999Z,98681.45
